This is the latest recevied weather packets stored in our database for station/object VR2OT-10. If no packets are shown the sender has not sent any weather packets the latest 10 day(s).
| Time | Temp. | Humidity | Pressure | Rain* | Wind** | Luminosity | Snow |
|---|---|---|---|---|---|---|---|
| 1787712933 | 28.89° C | 83% | 1004.7 hPa | - | 1.34 m/s, 315° | - | - |
| 1787712034 | 28.89° C | 84% | 1004.6 hPa | - | 0.45 m/s, 315° | - | - |
| 1787711132 | 28.33° C | 86% | 1004.6 hPa | - | - | - | - |
| 1787710233 | 27.78° C | 85% | 1004.6 hPa | - | 0 m/s | - | - |
| 1787708432 | 26.11° C | 91% | 1004.7 hPa | - | 0 m/s | - | - |
| 1787707533 | 25.56° C | 88% | 1004.7 hPa | - | 1.79 m/s, 135° | - | - |
| 1787706633 | 26.11° C | 86% | 1004.7 hPa | - | 0 m/s | - | - |
| 1787705732 | 26.67° C | 91% | 1004.2 hPa | - | 0.89 m/s, 0° | - | - |
| 1787704834 | 26.67° C | 92% | 1004.1 hPa | - | 0 m/s | - | - |
| 1787703032 | 26.11° C | 92% | 1003.8 hPa | - | 1.34 m/s, 315° | - | - |
| 1787702133 | 26.67° C | 94% | 1004 hPa | - | 2.24 m/s, 315° | - | - |
| 1787701234 | 27.22° C | 91% | 1003.7 hPa | - | 3.13 m/s, 315° | - | - |
| 1787700332 | 28.89° C | 87% | 1003.7 hPa | - | 1.79 m/s, 225° | - | - |
| 1787699434 | 28.89° C | 81% | 1003.2 hPa | - | 1.79 m/s, 180° | - | - |
| 1787698533 | 28.33° C | 83% | 1003.1 hPa | - | 2.68 m/s, 180° | - | - |
| 1787697631 | 28.33° C | 83% | 1003.1 hPa | - | 2.24 m/s, 180° | - | - |
| 1787696733 | 28.33° C | 83% | 1002.8 hPa | - | 2.68 m/s, 180° | - | - |
| 1787695834 | 28.33° C | 83% | 1002.8 hPa | - | 1.79 m/s, 180° | - | - |
| 1787694932 | 28.33° C | 85% | 1002.7 hPa | - | 1.34 m/s, 180° | - | - |
| 1787694034 | 28.33° C | 84% | 1002.6 hPa | - | 0.89 m/s, 180° | - | - |
| 1787693133 | 28.33° C | 85% | 1002.3 hPa | - | - | - | - |
| 1787691333 | 28.33° C | 84% | 1002.6 hPa | - | 0 m/s | - | - |
| 1787690434 | 28.33° C | 84% | 1002.6 hPa | - | 0.45 m/s, 135° | - | - |
| 1787689532 | 28.33° C | 84% | 1002.5 hPa | - | 1.34 m/s, 135° | - | - |
| 1787688634 | 28.33° C | 83% | 1002.3 hPa | - | 0.45 m/s, 135° | - | - |
* Rain since midnight (hover to see other rain measurements)
** Current wind speed in m/s (hover to see current wind gust speed)